Time;durP1;ratioP1;P1;durP2;ratioP2;P2;SDS_P1;SDS_P2;PMS_P1;PMS_P2;Temp;Humidity;BMP_temperature;BMP_pressure;BME280_temperature;BME280_humidity;BME280_pressure;Samples;Min_cycle;Max_cycle;Signal;HPM_P1;HPM_P2
2022/12/09 00:00:49;;;;;;;;;;;;;;;1.53;100.00;100636.63;5079478;28;19916;-62
2022/12/09 00:03:14;;;;;;;;;;;;;;;1.54;100.00;100633.06;5088830;28;19968;-62
2022/12/09 00:05:42;;;;;;;;;;;;;;;1.54;100.00;100636.50;5083230;28;19912;-62
2022/12/09 00:08:07;;;;;;;;;;;;;;;1.52;100.00;100635.78;5088440;28;20298;-63
2022/12/09 00:10:32;;;;;;;;;;;;;;;1.53;100.00;100632.22;5080246;28;20355;-62
2022/12/09 00:12:57;;;;;;;;;;;;;;;1.56;100.00;100633.78;5089198;28;19912;-62
2022/12/09 00:15:23;;;;;;;;;;;;;;;1.57;100.00;100626.75;5085239;28;19942;-63
2022/12/09 00:17:48;;;;;;;;;;;;;;;1.55;100.00;100634.72;5087772;28;19969;-62
2022/12/09 00:20:13;;;;;;;;;;;;;;;1.56;100.00;100628.53;5087515;28;19916;-63
2022/12/09 00:22:38;;;;;;;;;;;;;;;1.58;100.00;100631.03;5090051;28;19961;-62
2022/12/09 00:25:03;;;;;;;;;;;;;;;1.59;100.00;100633.53;5087250;28;20416;-63
2022/12/09 00:27:29;;;;;;;;;;;;;;;1.62;100.00;100632.47;5088199;28;19928;-63
2022/12/09 00:29:54;;;;;;;;;;;;;;;1.64;100.00;100633.19;5083854;28;19962;-62
2022/12/09 00:32:19;;;;;;;;;;;;;;;1.65;100.00;100630.44;5085870;28;19919;-63
2022/12/09 00:34:44;;;;;;;;;;;;;;;1.69;100.00;100628.41;5078096;28;20450;-62
2022/12/09 00:37:09;;;;;;;;;;;;;;;1.71;100.00;100629.97;5081087;28;19924;-63
2022/12/09 00:39:34;;;;;;;;;;;;;;;1.72;100.00;100636.84;5082331;28;20688;-62
2022/12/09 00:42:00;;;;;;;;;;;;;;;1.74;100.00;100629.75;5083916;28;19916;-62
2022/12/09 00:44:25;;;;;;;;;;;;;;;1.75;100.00;100627.97;5084046;28;19967;-62
2022/12/09 00:46:50;;;;;;;;;;;;;;;1.79;100.00;100632.00;5082453;28;19912;-62
2022/12/09 00:49:15;;;;;;;;;;;;;;;1.79;100.00;100627.59;5085203;28;19920;-63
2022/12/09 00:51:40;;;;;;;;;;;;;;;1.81;100.00;100624.88;5084314;28;19969;-63
2022/12/09 00:54:06;;;;;;;;;;;;;;;1.83;100.00;100636.03;5088722;28;20478;-62
2022/12/09 00:56:31;;;;;;;;;;;;;;;1.86;100.00;100635.81;5095411;28;19919;-63
2022/12/09 00:58:57;;;;;;;;;;;;;;;1.88;100.00;100633.91;5093299;28;19927;-63
2022/12/09 01:01:22;;;;;;;;;;;;;;;1.89;100.00;100630.31;5084961;28;19916;-62
2022/12/09 01:03:48;;;;;;;;;;;;;;;1.90;100.00;100629.38;5086077;28;19923;-62
2022/12/09 01:06:15;;;;;;;;;;;;;;;1.89;100.00;100619.03;5081683;28;19977;-63
2022/12/09 01:08:40;;;;;;;;;;;;;;;1.90;100.00;100629.38;5085463;28;20589;-62
2022/12/09 01:11:19;;;;;;;;;;;;;;;1.89;100.00;100622.47;5083906;28;19924;-63
2022/12/09 01:13:45;;;;;;;;;;;;;;;1.90;100.00;100629.38;5087115;28;19935;-64
2022/12/09 01:16:14;;;;;;;;;;;;;;;1.90;100.00;100629.38;5082652;28;19916;-62
2022/12/09 01:18:39;;;;;;;;;;;;;;;1.91;100.00;100624.97;5080950;28;19916;-63
2022/12/09 01:21:04;;;;;;;;;;;;;;;1.91;100.00;100631.03;5082252;28;19916;-62
2022/12/09 01:23:29;;;;;;;;;;;;;;;1.94;100.00;100635.19;5087698;28;19916;-63
2022/12/09 01:25:54;;;;;;;;;;;;;;;1.95;100.00;100629.00;5085407;28;19952;-62
2022/12/09 01:28:20;;;;;;;;;;;;;;;1.96;100.00;100633.28;5085819;28;19916;-62
2022/12/09 01:30:45;;;;;;;;;;;;;;;1.97;100.00;100634.94;5083019;28;20382;-63
2022/12/09 01:33:10;;;;;;;;;;;;;;;1.98;100.00;100644.47;5087062;28;19912;-63
2022/12/09 01:35:38;;;;;;;;;;;;;;;1.97;100.00;100643.63;5086888;28;19920;-62
2022/12/09 01:38:03;;;;;;;;;;;;;;;1.99;100.00;100644.34;5086914;28;19920;-63
2022/12/09 01:40:28;;;;;;;;;;;;;;;2.01;100.00;100639.00;5082428;28;19923;-62
2022/12/09 01:42:53;;;;;;;;;;;;;;;2.01;100.00;100646.84;5081160;28;20391;-63
2022/12/09 01:45:19;;;;;;;;;;;;;;;2.01;100.00;100641.63;5084371;28;19923;-62
2022/12/09 01:47:53;;;;;;;;;;;;;;;2.01;100.00;100654.72;5084638;28;19924;-62
2022/12/09 01:50:18;;;;;;;;;;;;;;;2.02;100.00;100654.59;5085486;28;19923;-62
2022/12/09 01:52:45;;;;;;;;;;;;;;;2.03;100.00;100651.03;5085698;28;19912;-62
2022/12/09 01:55:10;;;;;;;;;;;;;;;2.04;100.00;100652.72;5082128;28;19916;-63
2022/12/09 01:57:35;;;;;;;;;;;;;;;2.05;100.00;100648.31;5088325;28;19923;-62
2022/12/09 02:00:01;;;;;;;;;;;;;;;2.05;100.00;100643.91;5082126;28;19959;-62
2022/12/09 02:02:31;;;;;;;;;;;;;;;2.06;100.00;100644.72;5081954;28;19965;-63
2022/12/09 02:04:57;;;;;;;;;;;;;;;2.07;100.00;100642.00;5084649;28;19978;-62
2022/12/09 02:07:22;;;;;;;;;;;;;;;2.07;100.00;100639.38;5080888;28;20325;-63
2022/12/09 02:09:51;;;;;;;;;;;;;;;2.07;100.00;100641.16;5078820;28;20007;-62
2022/12/09 02:12:29;;;;;;;;;;;;;;;2.07;100.00;100647.22;5081729;28;20403;-62
2022/12/09 02:14:54;;;;;;;;;;;;;;;2.07;100.00;100641.16;5078683;28;19912;-63
2022/12/09 02:17:24;;;;;;;;;;;;;;;2.08;100.00;100637.56;5087974;28;20010;-62
2022/12/09 02:19:49;;;;;;;;;;;;;;;2.08;100.00;100643.66;5081692;28;20019;-62
2022/12/09 02:22:19;;;;;;;;;;;;;;;2.10;100.00;100643.53;5081294;28;20007;-63
2022/12/09 02:24:44;;;;;;;;;;;;;;;2.11;100.00;100643.41;5088205;28;19924;-63
2022/12/09 02:27:15;;;;;;;;;;;;;;;2.11;100.00;100640.78;5085423;28;19928;-62
2022/12/09 02:29:53;;;;;;;;;;;;;;;2.11;100.00;100635.53;5078251;28;19916;-62
2022/12/09 02:32:37;;;;;;;;;;;;;;;2.11;100.00;100646.03;5093429;28;19919;-63
2022/12/09 02:35:14;;;;;;;;;;;;;;;2.11;100.00;100642.56;5082971;28;20007;-62
2022/12/09 02:37:45;;;;;;;;;;;;;;;2.12;100.00;100644.22;5090004;28;19924;-63
2022/12/09 02:40:13;;;;;;;;;;;;;;;2.12;100.00;100639.81;5081783;28;19916;-62
2022/12/09 02:42:39;;;;;;;;;;;;;;;2.12;100.00;100636.38;5087931;28;19920;-63
2022/12/09 02:45:06;;;;;;;;;;;;;;;2.10;100.00;100638.28;5086813;28;19919;-63
2022/12/09 02:47:33;;;;;;;;;;;;;;;2.09;100.00;100645.31;5087697;28;19920;-62
2022/12/09 02:50:00;;;;;;;;;;;;;;;2.11;100.00;100642.56;5084493;28;20013;-62
2022/12/09 02:52:27;;;;;;;;;;;;;;;2.12;100.00;100631.13;5082506;28;20434;-62
2022/12/09 02:54:52;;;;;;;;;;;;;;;2.12;100.00;100629.34;5089219;28;19995;-63
2022/12/09 02:57:25;;;;;;;;;;;;;;;2.12;100.00;100633.75;5082918;28;20015;-63
2022/12/09 02:59:50;;;;;;;;;;;;;;;2.11;100.00;100625.06;5085057;28;19924;-63
2022/12/09 03:02:33;;;;;;;;;;;;;;;2.09;100.00;100616.50;5091761;28;20309;-64
2022/12/09 03:05:12;;;;;;;;;;;;;;;2.09;100.00;100619.13;5090619;28;20365;-63
2022/12/09 03:07:53;;;;;;;;;;;;;;;2.08;100.00;100617.47;5087315;28;19931;-63
2022/12/09 03:10:33;;;;;;;;;;;;;;;2.08;100.00;100612.22;5083034;28;19920;-62
2022/12/09 03:13:14;;;;;;;;;;;;;;;2.09;100.00;100613.06;5089295;28;19916;-63
2022/12/09 03:15:43;;;;;;;;;;;;;;;2.10;100.00;100614.72;5079323;28;19916;-63
2022/12/09 03:18:10;;;;;;;;;;;;;;;2.11;100.00;100614.59;5077442;28;19923;-62
2022/12/09 03:20:38;;;;;;;;;;;;;;;2.13;100.00;100617.91;5075841;28;19916;-63
2022/12/09 03:23:04;;;;;;;;;;;;;;;2.13;100.00;100615.31;5082706;28;19961;-62
2022/12/09 03:25:31;;;;;;;;;;;;;;;2.15;100.00;100618.63;5083408;28;20376;-64
2022/12/09 03:28:01;;;;;;;;;;;;;;;2.16;100.00;100615.06;5090046;28;19920;-62
2022/12/09 03:30:29;;;;;;;;;;;;;;;2.17;100.00;100610.66;5083360;28;19916;-63
2022/12/09 03:32:55;;;;;;;;;;;;;;;2.18;100.00;100612.31;5086109;28;19938;-62
2022/12/09 03:35:22;;;;;;;;;;;;;;;2.18;100.00;100607.06;5081006;28;19922;-62
2022/12/09 03:37:48;;;;;;;;;;;;;;;2.17;100.00;100606.25;5082349;28;19920;-63
2022/12/09 03:40:16;;;;;;;;;;;;;;;2.17;100.00;100606.25;5083400;28;20007;-62
2022/12/09 03:42:46;;;;;;;;;;;;;;;2.17;100.00;100601.00;5083708;28;19916;-63
2022/12/09 03:45:14;;;;;;;;;;;;;;;2.17;100.00;100597.56;5080047;28;19947;-62
2022/12/09 03:47:39;;;;;;;;;;;;;;;2.17;100.00;100606.25;5084049;28;20345;-62
2022/12/09 03:50:05;;;;;;;;;;;;;;;2.18;100.00;100597.44;5091382;28;20382;-63
2022/12/09 03:52:38;;;;;;;;;;;;;;;2.17;100.00;100593.13;5089337;28;19920;-62
2022/12/09 03:55:09;;;;;;;;;;;;;;;2.18;100.00;100589.56;5086720;28;19931;-63
2022/12/09 03:57:37;;;;;;;;;;;;;;;2.17;100.00;100587.91;5081536;28;20054;-63
2022/12/09 04:00:03;;;;;;;;;;;;;;;2.17;100.00;100592.31;5082532;28;19924;-63
2022/12/09 04:02:28;;;;;;;;;;;;;;;2.18;100.00;100602.66;5081716;28;19955;-62
2022/12/09 04:04:53;;;;;;;;;;;;;;;2.17;100.00;100595.75;5084423;28;19912;-63
2022/12/09 04:07:18;;;;;;;;;;;;;;;2.16;100.00;100601.97;5088145;28;19958;-62
2022/12/09 04:09:43;;;;;;;;;;;;;;;2.16;100.00;100594.09;5089714;28;20402;-62
2022/12/09 04:12:09;;;;;;;;;;;;;;;2.17;100.00;100598.38;5086098;28;19916;-62
2022/12/09 04:14:34;;;;;;;;;;;;;;;2.19;100.00;100603.50;5092638;28;19919;-62
2022/12/09 04:16:59;;;;;;;;;;;;;;;2.19;100.00;100593.03;5089400;28;20007;-63
2022/12/09 04:19:24;;;;;;;;;;;;;;;2.16;100.00;100594.09;5089207;28;19919;-63
2022/12/09 04:21:50;;;;;;;;;;;;;;;2.15;100.00;100600.28;5083634;28;19964;-62
2022/12/09 04:24:15;;;;;;;;;;;;;;;2.12;100.00;100597.09;5088710;28;19993;-62
2022/12/09 04:26:40;;;;;;;;;;;;;;;2.11;100.00;100596.25;5077478;28;19928;-63
2022/12/09 04:29:05;;;;;;;;;;;;;;;2.10;100.00;100593.75;5086648;28;19924;-62
2022/12/09 04:31:31;;;;;;;;;;;;;;;2.10;100.00;100599.84;5087343;28;19957;-63
2022/12/09 04:33:56;;;;;;;;;;;;;;;2.11;100.00;100596.25;5076509;28;20027;-63
2022/12/09 04:36:21;;;;;;;;;;;;;;;2.13;100.00;100593.50;5085154;28;19942;-65
2022/12/09 04:38:47;;;;;;;;;;;;;;;2.14;100.00;100589.94;5093311;28;19969;-62
2022/12/09 04:41:12;;;;;;;;;;;;;;;2.14;100.00;100579.47;5088442;28;20291;-64
2022/12/09 04:43:38;;;;;;;;;;;;;;;2.15;100.00;100587.19;5085041;28;20034;-62
2022/12/09 04:46:04;;;;;;;;;;;;;;;2.16;100.00;100588.03;5086505;28;20018;-62
2022/12/09 04:48:29;;;;;;;;;;;;;;;2.15;100.00;100587.19;5079872;28;19920;-62
2022/12/09 04:50:55;;;;;;;;;;;;;;;2.16;100.00;100582.78;5083826;28;19916;-63
2022/12/09 04:53:20;;;;;;;;;;;;;;;2.17;100.00;100581.84;5088446;28;20451;-63
2022/12/09 04:55:46;;;;;;;;;;;;;;;2.20;100.00;100588.59;5081513;28;19958;-62
2022/12/09 04:58:11;;;;;;;;;;;;;;;2.19;100.00;100582.53;5080691;28;19930;-63
2022/12/09 05:00:36;;;;;;;;;;;;;;;2.21;100.00;100587.66;5084216;28;19953;-63
2022/12/09 05:03:01;;;;;;;;;;;;;;;2.22;100.00;100594.56;5089187;28;19997;-63
2022/12/09 05:05:26;;;;;;;;;;;;;;;2.21;100.00;100593.72;5078163;28;19920;-63
2022/12/09 05:07:52;;;;;;;;;;;;;;;2.22;100.00;100597.19;5082943;28;19916;-63
2022/12/09 05:10:17;;;;;;;;;;;;;;;2.21;100.00;100595.50;5080677;28;19923;-63
2022/12/09 05:12:42;;;;;;;;;;;;;;;2.20;100.00;100586.81;5087336;28;20003;-62
2022/12/09 05:15:07;;;;;;;;;;;;;;;2.21;100.00;100590.28;5088628;28;19962;-63
2022/12/09 05:17:33;;;;;;;;;;;;;;;2.21;100.00;100590.28;5078609;28;19912;-63
2022/12/09 05:19:58;;;;;;;;;;;;;;;2.19;100.00;100593.03;5084527;28;19912;-63
2022/12/09 05:22:23;;;;;;;;;;;;;;;2.18;100.00;100589.56;5079328;28;20018;-63
2022/12/09 05:24:48;;;;;;;;;;;;;;;2.17;100.00;100592.31;5089354;28;19912;-62
2022/12/09 05:27:14;;;;;;;;;;;;;;;2.16;100.00;100594.09;5086353;28;19919;-63
2022/12/09 05:29:39;;;;;;;;;;;;;;;2.16;100.00;100588.03;5086378;28;19916;-62
2022/12/09 05:32:04;;;;;;;;;;;;;;;2.16;100.00;100588.84;5081267;28;19927;-63
2022/12/09 05:34:29;;;;;;;;;;;;;;;2.17;100.00;100590.53;5087887;28;20406;-63
2022/12/09 05:36:55;;;;;;;;;;;;;;;2.17;100.00;100592.31;5084572;28;19916;-62
2022/12/09 05:39:20;;;;;;;;;;;;;;;2.18;100.00;100592.19;5089040;28;20318;-62
2022/12/09 05:41:46;;;;;;;;;;;;;;;2.18;100.00;100586.94;5087888;28;20276;-62
2022/12/09 05:44:11;;;;;;;;;;;;;;;2.18;100.00;100589.56;5087080;28;19918;-63
2022/12/09 05:46:36;;;;;;;;;;;;;;;2.20;100.00;100597.31;5084655;28;19924;-62
2022/12/09 05:49:02;;;;;;;;;;;;;;;2.18;100.00;100589.56;5086567;28;19959;-65
2022/12/09 05:51:28;;;;;;;;;;;;;;;2.16;100.00;100590.66;5089114;28;19915;-63
2022/12/09 05:53:53;;;;;;;;;;;;;;;2.14;100.00;100592.56;5081643;28;19995;-63
2022/12/09 05:56:19;;;;;;;;;;;;;;;2.15;100.00;100594.22;5088589;28;20031;-62
2022/12/09 05:58:44;;;;;;;;;;;;;;;2.13;100.00;100596.13;5083787;28;20372;-62
2022/12/09 06:01:10;;;;;;;;;;;;;;;2.08;100.00;100590.44;5084931;28;20414;-62
2022/12/09 06:03:35;;;;;;;;;;;;;;;2.03;100.00;100585.56;5076684;28;20297;-63
2022/12/09 06:06:08;;;;;;;;;;;;;;;2.02;100.00;100591.72;5088789;28;19939;-63
2022/12/09 06:08:33;;;;;;;;;;;;;;;2.02;100.00;100591.72;5091115;28;20019;-62
2022/12/09 06:10:58;;;;;;;;;;;;;;;2.03;100.00;100589.97;5088584;28;19922;-63
2022/12/09 06:13:24;;;;;;;;;;;;;;;2.05;100.00;100583.66;5083217;28;19916;-63
2022/12/09 06:15:49;;;;;;;;;;;;;;;2.05;100.00;100583.66;5085709;28;19982;-63
2022/12/09 06:18:14;;;;;;;;;;;;;;;2.05;100.00;100578.41;5092603;28;20006;-63
2022/12/09 06:20:40;;;;;;;;;;;;;;;2.04;100.00;100566.28;5088014;28;19966;-63
2022/12/09 06:23:05;;;;;;;;;;;;;;;2.05;100.00;100577.59;5087758;28;19999;-63
2022/12/09 06:25:31;;;;;;;;;;;;;;;2.03;100.00;100580.34;5099654;28;19913;-64
2022/12/09 06:27:56;;;;;;;;;;;;;;;2.01;100.00;100579.59;5092043;28;19920;-63
2022/12/09 06:30:21;;;;;;;;;;;;;;;1.98;100.00;100582.47;5089412;28;19916;-63
2022/12/09 06:32:46;;;;;;;;;;;;;;;1.95;100.00;100577.47;5090888;28;19963;-62
2022/12/09 06:35:11;;;;;;;;;;;;;;;1.90;100.00;100590.09;5086760;28;20002;-63
2022/12/09 06:37:37;;;;;;;;;;;;;;;1.85;100.00;100580.00;5084129;28;19942;-62
2022/12/09 06:40:02;;;;;;;;;;;;;;;1.81;100.00;100575.13;5080706;28;19934;-63
2022/12/09 06:42:27;;;;;;;;;;;;;;;1.77;100.00;100574.53;5086342;28;19927;-63
2022/12/09 06:44:53;;;;;;;;;;;;;;;1.73;100.00;100573.09;5088095;28;19924;-63
2022/12/09 06:47:18;;;;;;;;;;;;;;;1.67;100.00;100567.50;5079262;28;19967;-62
2022/12/09 06:49:43;;;;;;;;;;;;;;;1.60;100.00;100571.56;5085620;28;19942;-62
2022/12/09 06:52:08;;;;;;;;;;;;;;;1.55;100.00;100577.97;5083607;28;19923;-63
2022/12/09 06:54:33;;;;;;;;;;;;;;;1.54;100.00;100586.78;5080495;28;20349;-64
2022/12/09 06:56:59;;;;;;;;;;;;;;;1.50;100.00;100582.75;5086329;28;19924;-63
2022/12/09 06:59:24;;;;;;;;;;;;;;;1.50;100.00;100581.91;5080237;28;19916;-63
2022/12/09 07:01:49;;;;;;;;;;;;;;;1.49;100.00;100578.47;5075021;28;19916;-62
2022/12/09 07:04:14;;;;;;;;;;;;;;;1.51;100.00;100586.19;5080136;28;19966;-63
2022/12/09 07:06:41;;;;;;;;;;;;;;;1.51;100.00;100588.81;5082284;28;19927;-64
2022/12/09 07:09:17;;;;;;;;;;;;;;;1.51;100.00;100592.25;5083053;28;20033;-62
2022/12/09 07:11:44;;;;;;;;;;;;;;;1.50;100.00;100589.78;5082952;28;19920;-64
2022/12/09 07:14:09;;;;;;;;;;;;;;;1.46;100.00;100589.19;5088766;28;19927;-62
2022/12/09 07:16:35;;;;;;;;;;;;;;;1.44;100.00;100595.44;5084255;28;19942;-63
2022/12/09 07:19:00;;;;;;;;;;;;;;;1.40;100.00;100591.41;5083179;28;19967;-63
2022/12/09 07:21:26;;;;;;;;;;;;;;;1.37;100.00;100592.47;5083263;28;20054;-62
2022/12/09 07:23:52;;;;;;;;;;;;;;;1.36;100.00;100588.19;5077815;28;19913;-62
2022/12/09 07:26:18;;;;;;;;;;;;;;;1.38;100.00;100598.53;5087169;28;19927;-62
2022/12/09 07:28:45;;;;;;;;;;;;;;;1.39;100.00;100598.41;5088824;28;19920;-63
2022/12/09 07:31:21;;;;;;;;;;;;;;;1.42;100.00;100602.59;5081129;28;19934;-63
2022/12/09 07:33:47;;;;;;;;;;;;;;;1.44;100.00;100609.38;5082507;28;19922;-63
2022/12/09 07:36:12;;;;;;;;;;;;;;;1.46;100.00;100611.88;5077916;28;19999;-62
2022/12/09 07:38:38;;;;;;;;;;;;;;;1.47;100.00;100614.38;5082159;28;19920;-62
2022/12/09 07:41:04;;;;;;;;;;;;;;;1.50;100.00;100615.94;5082040;28;19924;-63
2022/12/09 07:43:31;;;;;;;;;;;;;;;1.52;100.00;100616.66;5079868;28;19923;-62
2022/12/09 07:45:56;;;;;;;;;;;;;;;1.53;100.00;100616.53;5082383;28;19981;-62
2022/12/09 07:48:21;;;;;;;;;;;;;;;1.53;100.00;100621.75;5083424;28;20471;-62
2022/12/09 07:50:46;;;;;;;;;;;;;;;1.53;100.00;100627.00;5084171;28;20015;-62
2022/12/09 07:53:12;;;;;;;;;;;;;;;1.52;100.00;100621.88;5105698;28;19912;-62
2022/12/09 07:55:37;;;;;;;;;;;;;;;1.51;100.00;100626.28;5089279;28;19966;-64
2022/12/09 07:58:02;;;;;;;;;;;;;;;1.50;100.00;100627.22;5028085;28;1709778;-62
2022/12/09 08:00:27;;;;;;;;;;;;;;;1.48;100.00;100623.91;5089357;28;20015;-62
2022/12/09 08:02:52;;;;;;;;;;;;;;;1.47;100.00;100619.63;5087132;28;19916;-62
2022/12/09 08:05:17;;;;;;;;;;;;;;;1.47;100.00;100617.00;5083238;28;19955;-63
2022/12/09 08:07:43;;;;;;;;;;;;;;;1.47;100.00;100619.63;5087984;28;20334;-62
2022/12/09 08:10:08;;;;;;;;;;;;;;;1.46;100.00;100620.56;5079231;28;19939;-62
2022/12/09 08:12:33;;;;;;;;;;;;;;;1.49;100.00;100627.34;5091483;28;19912;-62
2022/12/09 08:14:58;;;;;;;;;;;;;;;1.50;100.00;100622.00;5088339;28;20006;-62
2022/12/09 08:17:25;;;;;;;;;;;;;;;1.53;100.00;100620.94;5080175;28;20265;-62
2022/12/09 08:19:51;;;;;;;;;;;;;;;1.53;100.00;100621.75;5081474;28;19912;-62
2022/12/09 08:22:16;;;;;;;;;;;;;;;1.51;100.00;100621.06;5078626;28;19920;-63
2022/12/09 08:24:41;;;;;;;;;;;;;;;1.50;100.00;100629.84;5086786;28;19912;-62
2022/12/09 08:27:06;;;;;;;;;;;;;;;1.47;100.00;100630.09;5089688;28;19919;-62
2022/12/09 08:29:31;;;;;;;;;;;;;;;1.43;100.00;100625.19;5091838;28;20445;-62
2022/12/09 08:31:56;;;;;;;;;;;;;;;1.48;100.00;100625.69;5082855;28;19938;-63
2022/12/09 08:34:22;;;;;;;;;;;;;;;1.49;99.99;100636.03;5080370;28;19912;-62
2022/12/09 08:36:47;;;;;;;;;;;;;;;1.52;100.00;100624.50;5086050;28;19965;-64
2022/12/09 08:39:12;;;;;;;;;;;;;;;1.48;99.95;100623.91;5090820;28;19919;-62
2022/12/09 08:41:38;;;;;;;;;;;;;;;1.47;100.00;100621.41;5080847;28;20557;-62
2022/12/09 08:44:04;;;;;;;;;;;;;;;1.47;99.86;100626.63;5087653;28;19930;-62
2022/12/09 08:46:30;;;;;;;;;;;;;;;1.47;100.00;100624.84;5087894;28;19958;-63
2022/12/09 08:48:55;;;;;;;;;;;;;;;1.47;100.00;100624.84;5087929;28;19920;-63
2022/12/09 08:51:21;;;;;;;;;;;;;;;1.52;99.97;100625.34;5094661;28;19912;-63
2022/12/09 08:53:46;;;;;;;;;;;;;;;1.54;100.00;100628.66;5091701;28;19959;-62
2022/12/09 08:56:12;;;;;;;;;;;;;;;1.56;99.98;100618.06;5089054;28;19912;-64
2022/12/09 08:58:38;;;;;;;;;;;;;;;1.59;99.91;100620.44;5088458;28;20460;-63
2022/12/09 09:01:03;;;;;;;;;;;;;;;1.61;100.00;100623.78;5087415;28;19920;-64
2022/12/09 09:03:29;;;;;;;;;;;;;;;1.60;99.98;100627.34;5089752;28;19955;-62
2022/12/09 09:05:59;;;;;;;;;;;;;;;1.58;99.89;100629.25;5088947;28;19924;-63
2022/12/09 09:08:24;;;;;;;;;;;;;;;1.54;100.00;100628.66;5084750;28;19936;-63
2022/12/09 09:10:49;;;;;;;;;;;;;;;1.51;99.79;100636.75;5087379;28;19912;-62
2022/12/09 09:13:14;;;;;;;;;;;;;;;1.47;99.91;100629.25;5087005;28;20016;-63
2022/12/09 09:15:40;;;;;;;;;;;;;;;1.42;99.58;100631.38;5085294;28;19916;-62
2022/12/09 09:18:05;;;;;;;;;;;;;;;1.41;99.60;100637.53;5088862;28;19947;-62
2022/12/09 09:20:30;;;;;;;;;;;;;;;1.40;99.71;100636.72;5083182;28;19958;-62
2022/12/09 09:22:55;;;;;;;;;;;;;;;1.38;99.83;100638.63;5087911;28;19912;-65
2022/12/09 09:25:20;;;;;;;;;;;;;;;1.29;99.54;100648.97;5088274;28;19964;-62
2022/12/09 09:27:45;;;;;;;;;;;;;;;1.21;99.15;100650.38;5083093;28;19923;-63
2022/12/09 09:30:11;;;;;;;;;;;;;;;1.14;99.34;100649.13;5087782;28;19912;-62
2022/12/09 09:32:36;;;;;;;;;;;;;;;1.15;99.32;100657.81;5081547;28;19920;-62
2022/12/09 09:35:01;;;;;;;;;;;;;;;1.17;99.45;100653.34;5088167;28;20505;-63
2022/12/09 09:37:26;;;;;;;;;;;;;;;1.19;99.36;100656.66;5081434;28;19957;-62
2022/12/09 09:39:51;;;;;;;;;;;;;;;1.14;99.43;100656.16;5082380;28;20008;-62
2022/12/09 09:42:22;;;;;;;;;;;;;;;1.13;99.27;100663.16;5083427;28;20001;-62
2022/12/09 09:44:48;;;;;;;;;;;;;;;1.16;99.45;100656.91;5082445;28;19919;-62
2022/12/09 09:47:18;;;;;;;;;;;;;;;1.17;99.58;100658.56;5090330;28;20299;-62
2022/12/09 09:49:52;;;;;;;;;;;;;;;1.19;99.38;100657.50;5082863;28;19919;-64
2022/12/09 09:52:19;;;;;;;;;;;;;;;1.20;99.41;100659.16;5087567;28;19959;-62
2022/12/09 09:54:45;;;;;;;;;;;;;;;1.23;99.36;100658.09;5081726;28;19912;-63
2022/12/09 09:57:22;;;;;;;;;;;;;;;1.24;99.52;100647.53;5082280;28;19927;-62
2022/12/09 10:00:06;;;;;;;;;;;;;;;1.27;99.57;100653.47;5085903;28;19912;-62
2022/12/09 10:02:34;;;;;;;;;;;;;;;1.27;99.57;100651.69;5079545;28;19928;-62
2022/12/09 10:05:16;;;;;;;;;;;;;;;1.27;99.39;100656.09;5087079;28;20375;-63
2022/12/09 10:07:42;;;;;;;;;;;;;;;1.23;99.32;100648.47;5085817;28;19980;-63
2022/12/09 10:10:14;;;;;;;;;;;;;;;1.22;99.42;100645.97;5078765;28;20194;-63
2022/12/09 10:12:51;;;;;;;;;;;;;;;1.23;99.33;100647.63;5085417;28;19912;-63
2022/12/09 10:15:21;;;;;;;;;;;;;;;1.23;99.32;100645.84;5084899;28;20007;-62
2022/12/09 10:17:49;;;;;;;;;;;;;;;1.23;99.31;100643.25;5085684;28;19912;-63
2022/12/09 10:20:16;;;;;;;;;;;;;;;1.24;99.18;100641.47;5079350;28;19916;-63
2022/12/09 10:23:02;;;;;;;;;;;;;;;1.28;99.45;100647.28;5077447;28;19916;-63
2022/12/09 10:25:29;;;;;;;;;;;;;;;1.31;99.32;100647.88;5082249;28;20002;-63
2022/12/09 10:28:00;;;;;;;;;;;;;;;1.33;99.34;100645.16;5082825;28;20452;-63
2022/12/09 10:30:25;;;;;;;;;;;;;;;1.36;99.58;100653.59;5082205;28;19924;-62
2022/12/09 10:32:51;;;;;;;;;;;;;;;1.38;99.38;100649.09;5080853;28;20572;-62
2022/12/09 10:35:18;;;;;;;;;;;;;;;1.41;99.42;100638.38;5082577;28;19931;-62
2022/12/09 10:37:44;;;;;;;;;;;;;;;1.42;99.65;100641.81;5082579;28;20284;-63
2022/12/09 10:40:09;;;;;;;;;;;;;;;1.43;99.29;100635.66;5082354;28;20414;-63
2022/12/09 10:45:26;;;;;;;;;;;;;;;1.46;99.52;100635.44;5085621;28;19962;-62
2022/12/09 10:47:51;;;;;;;;;;;;;;;1.43;99.57;100636.47;5082879;28;19972;-62
2022/12/09 10:50:37;;;;;;;;;;;;;;;1.44;99.29;100625.06;5079580;28;19919;-62
2022/12/09 10:53:10;;;;;;;;;;;;;;;1.37;99.21;100631.72;5076034;28;19912;-62
2022/12/09 10:55:37;;;;;;;;;;;;;;;1.35;99.25;100633.63;5091536;28;19969;-62
2022/12/09 10:58:10;;;;;;;;;;;;;;;1.33;99.24;100640.75;5089796;28;19916;-63
2022/12/09 11:00:36;;;;;;;;;;;;;;;1.30;99.09;100630.53;5090865;28;20414;-62
2022/12/09 11:03:01;;;;;;;;;;;;;;;1.29;98.87;100634.09;5091056;28;19916;-62
2022/12/09 11:05:28;;;;;;;;;;;;;;;1.32;99.16;100633.03;5091946;28;20396;-62
2022/12/09 11:07:55;;;;;;;;;;;;;;;1.32;98.92;100630.41;5086319;28;19928;-62
2022/12/09 11:10:22;;;;;;;;;;;;;;;1.36;99.08;100624.81;5087101;28;19961;-62
2022/12/09 11:12:49;;;;;;;;;;;;;;;1.45;99.08;100624.16;5095377;28;19915;-63
2022/12/09 11:15:47;;;;;;;;;;;;;;;1.47;99.25;100626.63;5090852;28;20002;-62
2022/12/09 11:18:18;;;;;;;;;;;;;;;1.48;99.21;100637.00;5055702;28;19962;-63
2022/12/09 11:20:52;;;;;;;;;;;;;;;1.49;99.46;100633.41;5088658;28;19961;-62
2022/12/09 11:23:19;;;;;;;;;;;;;;;1.50;99.12;100635.09;5078675;28;19995;-62
2022/12/09 11:25:55;;;;;;;;;;;;;;;1.49;99.16;100633.41;5081651;28;19940;-63
2022/12/09 11:28:22;;;;;;;;;;;;;;;1.43;98.91;100628.63;5086882;28;19967;-62
2022/12/09 11:31:06;;;;;;;;;;;;;;;1.40;98.69;100628.03;5088034;28;19919;-62
2022/12/09 11:33:33;;;;;;;;;;;;;;;1.40;98.93;100626.25;5083630;28;19995;-63
2022/12/09 11:35:58;;;;;;;;;;;;;;;1.43;98.70;100623.41;5087194;28;19923;-63
2022/12/09 11:38:30;;;;;;;;;;;;;;;1.49;98.70;100620.34;5087947;28;19919;-63
2022/12/09 11:41:00;;;;;;;;;;;;;;;1.53;98.56;100616.53;5090406;28;19912;-63
2022/12/09 11:43:31;;;;;;;;;;;;;;;1.60;98.66;100616.88;5079346;28;19947;-63
2022/12/09 11:45:57;;;;;;;;;;;;;;;1.67;98.69;100615.44;5086820;28;19912;-62
2022/12/09 11:48:27;;;;;;;;;;;;;;;1.77;98.52;100616.41;5084542;28;19931;-63
2022/12/09 11:50:54;;;;;;;;;;;;;;;1.87;98.45;100611.28;5087043;28;19912;-62
2022/12/09 11:53:27;;;;;;;;;;;;;;;1.92;98.46;100619.59;5089757;28;20464;-62
2022/12/09 11:55:56;;;;;;;;;;;;;;;1.95;98.17;100619.38;5087938;28;20010;-63
2022/12/09 11:58:25;;;;;;;;;;;;;;;1.93;98.08;100613.41;5088048;28;19965;-62
2022/12/09 12:01:02;;;;;;;;;;;;;;;1.91;97.97;100617.94;5089041;28;19916;-63
2022/12/09 12:03:43;;;;;;;;;;;;;;;1.92;98.14;100619.59;5088227;28;19916;-63
2022/12/09 12:06:19;;;;;;;;;;;;;;;1.92;97.89;100618.78;5089285;28;19923;-62
2022/12/09 12:08:48;;;;;;;;;;;;;;;1.91;97.81;100619.72;5086130;28;19923;-64
2022/12/09 12:11:18;;;;;;;;;;;;;;;1.95;97.80;100618.53;5089514;28;20022;-63
2022/12/09 12:13:47;;;;;;;;;;;;;;;1.95;97.69;100619.38;5088280;28;19919;-63
2022/12/09 12:16:12;;;;;;;;;;;;;;;1.97;97.48;100616.63;5090325;28;19912;-64
2022/12/09 12:18:43;;;;;;;;;;;;;;;1.96;97.69;100607.94;5082055;28;19920;-63
2022/12/09 12:21:11;;;;;;;;;;;;;;;2.00;97.48;100608.53;5088759;28;20363;-63
2022/12/09 12:23:46;;;;;;;;;;;;;;;2.02;97.78;100604.81;5083974;28;20859;-63
2022/12/09 12:26:17;;;;;;;;;;;;;;;2.05;97.62;100609.00;5081154;28;19940;-63
2022/12/09 12:28:45;;;;;;;;;;;;;;;2.07;97.28;100601.88;5083545;28;20410;-63
2022/12/09 12:31:23;;;;;;;;;;;;;;;2.11;97.42;100601.50;5074697;28;20446;-64
2022/12/09 12:34:05;;;;;;;;;;;;;;;2.11;97.00;100604.13;5083748;28;19920;-63
2022/12/09 12:36:48;;;;;;;;;;;;;;;2.18;97.16;100607.06;5082496;28;19923;-63
2022/12/09 12:39:32;;;;;;;;;;;;;;;2.22;97.24;100607.66;5089083;28;20002;-63
2022/12/09 12:42:18;;;;;;;;;;;;;;;2.24;96.90;100608.38;5076443;28;19923;-63
2022/12/09 12:47:50;;;;;;;;;;;;;;;2.29;97.23;100608.81;5082266;28;19955;-64